Time;durP1;ratioP1;P1;durP2;ratioP2;P2;SDS_P1;SDS_P2;PMS_P1;PMS_P2;Temp;Humidity;BMP_temperature;BMP_pressure;BME280_temperature;BME280_humidity;BME280_pressure;Samples;Min_cycle;Max_cycle;Signal;HPM_P1;HPM_P2
2022/03/08 00:02:09;;;;;;;12.75;7.30;;;1.00;99.90;;;;;;5149758;27;20352;-64
2022/03/08 00:04:35;;;;;;;13.88;7.60;;;1.00;99.90;;;;;;5148873;27;20085;-64
2022/03/08 00:07:02;;;;;;;11.40;6.68;;;1.00;99.90;;;;;;5149968;27;20490;-64
2022/03/08 00:09:28;;;;;;;12.40;6.82;;;1.00;99.90;;;;;;5151075;27;20044;-64
2022/03/08 00:11:54;;;;;;;14.18;7.15;;;1.10;99.90;;;;;;5149621;27;20035;-64
2022/03/08 00:14:20;;;;;;;13.52;7.25;;;1.00;99.90;;;;;;5147771;27;20039;-64
2022/03/08 00:16:46;;;;;;;12.80;6.90;;;1.10;99.90;;;;;;5150956;27;20383;-64
2022/03/08 00:19:12;;;;;;;13.63;7.55;;;1.10;99.90;;;;;;5150328;27;20374;-64
2022/03/08 00:21:38;;;;;;;12.77;7.32;;;1.10;99.90;;;;;;5148807;27;20126;-64
2022/03/08 00:24:05;;;;;;;14.65;7.22;;;1.20;99.90;;;;;;5147217;27;20077;-64
2022/03/08 00:26:30;;;;;;;14.52;7.35;;;1.20;99.90;;;;;;5150663;27;20050;-64
2022/03/08 00:28:56;;;;;;;10.20;6.53;;;1.10;99.90;;;;;;5144924;27;20179;-64
2022/03/08 00:31:22;;;;;;;13.50;6.93;;;1.10;99.90;;;;;;5146737;27;20078;-64
2022/03/08 00:33:47;;;;;;;13.52;7.13;;;1.00;99.90;;;;;;5150159;27;20046;-64
2022/03/08 00:36:13;;;;;;;11.25;7.03;;;1.00;99.90;;;;;;5150290;27;20184;-64
2022/03/08 00:38:39;;;;;;;11.45;7.18;;;0.90;99.90;;;;;;5149136;27;20381;-64
2022/03/08 00:41:05;;;;;;;13.35;7.30;;;0.90;99.90;;;;;;5148082;27;20046;-64
2022/03/08 00:43:31;;;;;;;14.30;7.40;;;0.80;99.90;;;;;;5146364;27;20038;-64
2022/03/08 00:45:56;;;;;;;14.18;7.55;;;0.80;99.90;;;;;;5147274;27;20035;-64
2022/03/08 00:48:22;;;;;;;13.65;7.72;;;0.70;99.90;;;;;;5148446;27;20078;-64
2022/03/08 00:50:48;;;;;;;18.98;7.38;;;0.70;99.90;;;;;;5148658;27;20039;-64
2022/03/08 00:53:14;;;;;;;13.93;7.65;;;0.60;99.90;;;;;;5147593;27;20038;-64
2022/03/08 00:55:40;;;;;;;13.73;7.82;;;0.60;99.90;;;;;;5146648;27;20406;-64
2022/03/08 00:58:06;;;;;;;16.50;7.90;;;0.60;99.90;;;;;;5147649;27;20079;-64
2022/03/08 01:00:34;;;;;;;11.82;7.28;;;0.60;99.90;;;;;;5149747;27;20031;-64
2022/03/08 01:03:00;;;;;;;14.18;7.95;;;0.60;99.90;;;;;;5147062;27;20045;-64
2022/03/08 01:05:27;;;;;;;13.90;8.00;;;0.60;99.90;;;;;;5143985;27;20034;-64
2022/03/08 01:07:53;;;;;;;14.23;8.05;;;1.00;99.90;;;;;;5146945;27;20462;-64
2022/03/08 01:10:21;;;;;;;14.82;7.85;;;0.50;99.90;;;;;;5143534;27;20059;-64
2022/03/08 01:12:48;;;;;;;14.55;8.13;;;0.60;99.90;;;;;;5145179;27;20474;-64
2022/03/08 01:15:15;;;;;;;13.57;7.78;;;0.50;99.90;;;;;;5151065;27;20031;-65
2022/03/08 01:17:41;;;;;;;14.40;7.85;;;0.50;99.90;;;;;;5151230;27;20104;-64
2022/03/08 01:20:08;;;;;;;16.35;8.70;;;0.50;99.90;;;;;;5152989;27;20027;-64
2022/03/08 01:22:34;;;;;;;15.63;7.93;;;0.50;99.90;;;;;;5150935;27;20105;-64
2022/03/08 01:25:00;;;;;;;16.98;8.70;;;0.50;99.90;;;;;;5148741;27;20672;-64
2022/03/08 01:27:26;;;;;;;15.27;8.43;;;0.40;99.90;;;;;;5149761;27;20061;-64
2022/03/08 01:29:52;;;;;;;15.90;8.90;;;0.40;99.90;;;;;;5151982;27;20046;-64
2022/03/08 01:32:18;;;;;;;14.57;8.25;;;0.40;99.90;;;;;;5150742;27;20041;-64
2022/03/08 01:34:43;;;;;;;18.67;8.18;;;0.30;99.90;;;;;;5148793;27;20122;-64
2022/03/08 01:37:10;;;;;;;13.07;7.82;;;0.30;99.90;;;;;;5149648;27;20066;-64
2022/03/08 01:39:36;;;;;;;15.07;8.48;;;0.30;99.90;;;;;;5149811;27;20494;-64
2022/03/08 01:42:14;;;;;;;12.13;7.75;;;0.30;99.90;;;;;;5151635;27;20061;-64
2022/03/08 01:44:45;;;;;;;14.95;8.65;;;0.20;99.90;;;;;;5168698;27;20051;-64
2022/03/08 01:47:17;;;;;;;16.98;8.68;;;0.20;99.90;;;;;;5153161;27;20111;-64
2022/03/08 01:49:44;;;;;;;13.05;8.43;;;0.20;99.90;;;;;;5151018;27;20145;-64
2022/03/08 01:52:10;;;;;;;13.60;7.88;;;0.20;99.90;;;;;;5152850;27;20390;-64
2022/03/08 01:54:36;;;;;;;14.77;8.40;;;0.10;99.90;;;;;;5152560;27;20055;-64
2022/03/08 01:57:05;;;;;;;14.02;8.93;;;0.10;99.90;;;;;;5132965;27;20509;-64
2022/03/08 01:59:31;;;;;;;14.68;9.15;;;0.10;99.90;;;;;;5150622;27;20050;-64
2022/03/08 02:01:57;;;;;;;15.57;8.55;;;0.10;99.90;;;;;;5149320;27;20027;-64
2022/03/08 02:04:23;;;;;;;16.50;7.90;;;0.10;99.90;;;;;;5151978;27;20031;-64
2022/03/08 02:07:05;;;;;;;16.30;9.27;;;0.10;99.90;;;;;;5151458;27;20034;-64
2022/03/08 02:09:33;;;;;;;17.77;8.93;;;0.00;99.90;;;;;;5150091;27;20037;-64
2022/03/08 02:12:29;;;;;;;14.35;8.75;;;0.00;99.90;;;;;;5152331;27;20450;-64
2022/03/08 02:15:39;;;;;;;14.73;8.68;;;0.00;99.90;;;;;;5148811;27;20035;-64
2022/03/08 02:18:47;;;;;;;17.20;8.93;;;0.00;99.90;;;;;;5145044;27;20065;-64
2022/03/08 02:24:59;;;;;;;13.43;8.27;;;-0.10;99.90;;;;;;5124897;27;20053;-64
2022/03/08 02:27:55;;;;;;;17.23;8.65;;;-0.10;99.90;;;;;;5166225;27;20078;-64
2022/03/08 02:37:04;;;;;;;15.50;8.95;;;-0.10;99.90;;;;;;5116974;27;20039;-64
2022/03/08 02:40:10;;;;;;;17.17;9.03;;;-0.10;99.90;;;;;;5148337;27;20048;-64
2022/03/08 02:45:50;;;;;;;19.58;8.73;;;0.00;99.90;;;;;;5135689;27;20046;-64
2022/03/08 02:48:19;;;;;;;16.75;9.93;;;0.10;99.90;;;;;;5146674;27;20068;-65
2022/03/08 02:51:10;;;;;;;15.77;9.73;;;0.10;99.90;;;;;;5147024;27;20454;-64
2022/03/08 02:53:54;;;;;;;18.42;9.43;;;0.10;99.90;;;;;;5150019;27;20045;-64
2022/03/08 02:56:21;;;;;;;15.75;9.52;;;0.10;99.90;;;;;;5147677;27;20035;-64
2022/03/08 03:02:58;;;;;;;16.92;9.55;;;0.10;99.90;;;;;;5104816;28;20040;-64
2022/03/08 03:05:27;;;;;;;14.77;9.05;;;0.10;99.90;;;;;;5165095;27;20163;-64
2022/03/08 03:11:13;;;;;;;17.70;9.90;;;0.10;99.90;;;;;;5148662;27;20039;-64
2022/03/08 03:13:49;;;;;;;18.25;10.23;;;0.00;99.90;;;;;;5150366;27;20163;-63
2022/03/08 03:16:33;;;;;;;19.02;10.15;;;-0.10;99.90;;;;;;5149787;27;20041;-65
2022/03/08 03:19:18;;;;;;;;;;;;;;;;;;;;;
2022/03/08 03:21:47;;;;;;;17.45;9.75;;;-0.20;99.90;;;;;;5148265;27;20398;-64
2022/03/08 03:24:17;;;;;;;17.05;10.38;;;-0.20;99.90;;;;;;5089726;27;1566629;-64
2022/03/08 03:26:58;;;;;;;;;;;;;;;;;;;;;
2022/03/08 03:29:27;;;;;;;14.85;8.95;;;-0.30;99.90;;;;;;5148858;27;20072;-64
2022/03/08 03:32:16;;;;;;;16.10;10.13;;;-0.30;99.90;;;;;;5149026;27;20060;-64
2022/03/08 03:34:50;;;;;;;16.75;9.55;;;-0.30;99.90;;;;;;5147313;27;20499;-64
2022/03/08 03:37:27;;;;;;;19.83;10.43;;;-0.30;99.90;;;;;;5146161;27;20057;-64
2022/03/08 03:40:14;;;;;;;17.50;10.40;;;-0.30;99.90;;;;;;5148879;27;20041;-64
2022/03/08 03:42:54;;;;;;;17.92;9.77;;;-0.30;99.90;;;;;;5148300;27;20041;-64
2022/03/08 03:45:21;;;;;;;18.58;10.50;;;-0.40;99.90;;;;;;5148406;27;20109;-64
2022/03/08 03:48:04;;;;;;;18.73;10.23;;;-0.10;99.90;;;;;;5149511;27;20050;-64
2022/03/08 03:51:02;;;;;;;20.55;11.23;;;-0.40;99.90;;;;;;5150095;27;20043;-64
2022/03/08 03:53:28;;;;;;;16.85;10.63;;;-0.40;99.90;;;;;;5149778;27;20037;-64
2022/03/08 03:56:35;;;;;;;19.00;11.02;;;-0.40;99.90;;;;;;5148881;27;20054;-64
2022/03/08 03:59:16;;;;;;;19.08;10.80;;;-0.40;99.90;;;;;;5147404;27;20038;-64
2022/03/08 04:02:03;;;;;;;17.58;10.77;;;-0.40;99.90;;;;;;5149134;27;20038;-64
2022/03/08 04:04:57;;;;;;;18.48;10.70;;;-0.40;99.90;;;;;;5147198;27;20035;-64
2022/03/08 04:07:38;;;;;;;18.52;11.32;;;-0.40;99.90;;;;;;5148335;27;20042;-64
2022/03/08 04:10:12;;;;;;;19.52;11.07;;;-0.40;99.90;;;;;;5147860;27;20122;-64
2022/03/08 04:12:44;;;;;;;20.20;11.50;;;-0.40;99.90;;;;;;5164944;27;20117;-64
2022/03/08 04:15:38;;;;;;;20.23;12.25;;;-0.40;99.90;;;;;;5148895;27;20429;-64
2022/03/08 04:18:14;;;;;;;19.63;10.95;;;-0.40;99.90;;;;;;5145030;27;20508;-64
2022/03/08 04:20:48;;;;;;;20.13;11.38;;;-0.40;99.90;;;;;;5148901;27;20074;-64
2022/03/08 04:23:37;;;;;;;18.02;10.68;;;-0.40;99.90;;;;;;5146560;27;20171;-64
2022/03/08 04:29:22;;;;;;;17.42;11.20;;;-0.50;99.90;;;;;;5143343;27;20130;-64
2022/03/08 04:32:00;;;;;;;18.50;10.52;;;-0.50;99.90;;;;;;5148674;27;20043;-64
2022/03/08 04:34:31;;;;;;;18.55;11.40;;;-0.50;99.90;;;;;;5147189;27;20039;-64
2022/03/08 04:37:07;;;;;;;18.83;11.48;;;-0.50;99.90;;;;;;5146874;27;20066;-65
2022/03/08 04:39:45;;;;;;;18.73;11.43;;;-0.50;99.90;;;;;;5125536;27;20047;-64
2022/03/08 04:42:30;;;;;;;19.25;11.02;;;-0.40;99.90;;;;;;5109693;27;20121;-64
2022/03/08 04:45:07;;;;;;;26.10;11.40;;;-0.40;99.90;;;;;;5108432;27;20039;-64
2022/03/08 04:47:41;;;;;;;21.00;11.57;;;-0.30;99.90;;;;;;5105959;27;20045;-64
2022/03/08 04:50:28;;;;;;;19.95;10.73;;;-0.40;99.90;;;;;;5127106;27;20050;-64
2022/03/08 04:53:20;;;;;;;20.20;11.25;;;-0.40;99.90;;;;;;5110119;27;20043;-64
2022/03/08 04:55:52;;;;;;;18.00;11.88;;;-0.40;99.90;;;;;;5096506;28;20044;-64
2022/03/08 04:58:32;;;;;;;19.90;11.23;;;-0.40;99.90;;;;;;5108154;28;20069;-64
2022/03/08 05:01:19;;;;;;;22.95;12.27;;;-0.40;99.90;;;;;;5110048;28;20116;-64
2022/03/08 05:03:45;;;;;;;15.75;9.45;;;-0.40;99.90;;;;;;5108499;28;20571;-64
2022/03/08 05:06:11;;;;;;;19.02;11.32;;;-0.40;99.90;;;;;;5091905;27;20082;-64
2022/03/08 05:08:46;;;;;;;23.45;11.55;;;-0.40;99.90;;;;;;5125013;27;20043;-64
2022/03/08 05:11:28;;;;;;;17.95;10.45;;;-0.40;99.90;;;;;;5143163;27;20043;-64
2022/03/08 05:13:57;;;;;;;19.27;11.23;;;-0.40;99.90;;;;;;5148033;27;20027;-64
2022/03/08 05:16:25;;;;;;;19.50;11.90;;;-0.40;99.90;;;;;;5147658;27;20045;-64
2022/03/08 05:19:14;;;;;;;23.20;11.82;;;-0.50;99.90;;;;;;5136918;27;20035;-64
2022/03/08 05:21:57;;;;;;;24.42;12.20;;;-0.50;99.90;;;;;;5146076;27;20087;-64
2022/03/08 05:24:44;;;;;;;19.20;11.23;;;-0.40;99.90;;;;;;5148621;27;20076;-64
2022/03/08 05:27:21;;;;;;;22.27;11.85;;;-0.40;99.90;;;;;;5148807;27;20078;-64
2022/03/08 05:29:53;;;;;;;22.90;12.55;;;-0.40;99.90;;;;;;5148775;27;20030;-65
2022/03/08 05:32:34;;;;;;;19.65;11.88;;;-0.50;99.90;;;;;;5147906;27;20049;-64
2022/03/08 05:35:13;;;;;;;20.77;11.85;;;-0.50;99.90;;;;;;5147589;27;20041;-64
2022/03/08 05:38:18;;;;;;;19.17;11.90;;;-0.50;99.90;;;;;;5144250;27;20055;-64
2022/03/08 05:40:55;;;;;;;18.40;10.98;;;-0.50;99.90;;;;;;5148210;27;21005;-64
2022/03/08 05:43:27;;;;;;;19.33;11.23;;;-0.50;99.90;;;;;;5146448;27;20034;-64
2022/03/08 05:46:18;;;;;;;19.55;11.23;;;-0.50;99.90;;;;;;5145385;27;20049;-64
2022/03/08 05:48:46;;;;;;;19.83;11.57;;;-0.50;99.90;;;;;;5146444;27;20470;-64
2022/03/08 05:51:18;;;;;;;20.45;11.77;;;-0.50;99.90;;;;;;5148616;27;20041;-64
2022/03/08 05:54:05;;;;;;;20.35;12.40;;;-0.50;99.90;;;;;;5146358;27;20031;-64
2022/03/08 05:56:40;;;;;;;20.02;12.13;;;-0.50;99.90;;;;;;5147443;27;20034;-64
2022/03/08 05:59:24;;;;;;;20.55;11.90;;;-0.60;99.90;;;;;;5147592;27;20095;-64
2022/03/08 06:02:11;;;;;;;25.17;11.90;;;-0.50;99.90;;;;;;5153229;27;20041;-64
2022/03/08 06:05:02;;;;;;;19.02;11.55;;;-0.60;99.90;;;;;;5101434;27;20114;-64
2022/03/08 06:07:36;;;;;;;20.30;12.65;;;-0.60;99.90;;;;;;5151709;27;20124;-64
2022/03/08 06:10:07;;;;;;;23.98;11.52;;;-0.60;99.90;;;;;;5150501;27;20107;-64
2022/03/08 06:12:42;;;;;;;19.15;11.38;;;-0.60;99.90;;;;;;5150770;27;20117;-64
2022/03/08 06:18:27;;;;;;;20.13;11.68;;;-0.50;99.90;;;;;;5147185;27;20272;-64
2022/03/08 06:21:07;;;;;;;26.27;12.98;;;-0.50;99.90;;;;;;5150678;27;20038;-64
2022/03/08 06:23:39;;;;;;;20.48;11.45;;;-0.40;99.90;;;;;;5145507;27;20046;-65
2022/03/08 06:26:19;;;;;;;24.02;11.70;;;-0.40;99.90;;;;;;5166407;27;20051;-64
2022/03/08 06:29:06;;;;;;;20.58;12.43;;;-0.40;99.90;;;;;;5147724;27;20046;-64
2022/03/08 06:31:41;;;;;;;22.00;12.88;;;-0.30;99.90;;;;;;5147947;27;20042;-64
2022/03/08 06:34:24;;;;;;;19.85;11.77;;;-0.30;99.90;;;;;;5150265;27;20082;-64
2022/03/08 06:37:04;;;;;;;20.40;12.35;;;-0.30;99.90;;;;;;5146342;27;20041;-64
2022/03/08 06:39:36;;;;;;;20.17;11.70;;;-0.20;99.90;;;;;;5149429;27;20073;-64
2022/03/08 06:42:26;;;;;;;20.67;12.13;;;-0.20;99.90;;;;;;5148416;27;20095;-64
2022/03/08 06:44:51;;;;;;;17.60;11.10;;;-0.20;99.90;;;;;;5151342;27;20390;-64
2022/03/08 06:47:30;;;;;;;21.55;12.30;;;-0.20;99.90;;;;;;5150501;27;20039;-64
2022/03/08 06:49:58;;;;;;;23.08;13.57;;;-0.20;99.90;;;;;;5150318;27;20102;-64
2022/03/08 06:52:31;;;;;;;20.75;12.20;;;-0.10;99.90;;;;;;5132862;27;20039;-64
2022/03/08 06:55:03;;;;;;;19.38;11.43;;;-0.10;99.90;;;;;;5148227;27;20046;-64
2022/03/08 06:57:43;;;;;;;19.88;11.50;;;0.00;99.90;;;;;;5145629;27;20042;-64
2022/03/08 07:00:15;;;;;;;19.38;12.73;;;0.10;99.90;;;;;;5147830;27;20035;-64
2022/03/08 07:02:57;;;;;;;18.88;11.55;;;0.10;99.90;;;;;;5149011;27;20084;-64
2022/03/08 07:05:28;;;;;;;21.23;12.18;;;0.20;99.90;;;;;;5149617;27;20039;-65
2022/03/08 07:08:09;;;;;;;19.05;12.02;;;0.30;99.90;;;;;;5150021;27;20030;-64
2022/03/08 07:10:46;;;;;;;17.27;10.75;;;0.30;99.90;;;;;;5150315;27;20053;-64
2022/03/08 07:13:17;;;;;;;18.73;11.15;;;0.40;99.90;;;;;;5148355;27;20469;-64
2022/03/08 07:15:54;;;;;;;18.10;11.85;;;0.50;99.90;;;;;;5147446;27;20081;-64
2022/03/08 07:18:31;;;;;;;19.02;11.20;;;0.50;99.90;;;;;;5151002;27;20035;-64
2022/03/08 07:21:24;;;;;;;16.13;11.05;;;0.60;99.90;;;;;;5145166;27;20074;-64
2022/03/08 07:24:00;;;;;;;18.23;11.45;;;0.60;99.90;;;;;;5149383;27;20409;-64
2022/03/08 07:26:26;;;;;;;18.30;10.93;;;0.70;99.90;;;;;;5164873;27;20405;-64
2022/03/08 07:29:01;;;;;;;18.95;11.25;;;0.70;99.90;;;;;;5150179;27;20038;-64
2022/03/08 07:31:45;;;;;;;19.15;12.20;;;0.70;99.90;;;;;;5147177;27;20422;-64
2022/03/08 07:34:36;;;;;;;19.15;11.98;;;0.80;99.90;;;;;;5146390;27;20042;-64
2022/03/08 07:37:07;;;;;;;18.83;11.70;;;0.90;99.90;;;;;;5145251;27;20030;-64
2022/03/08 07:39:42;;;;;;;20.48;11.60;;;0.90;99.90;;;;;;5149682;27;20037;-64
2022/03/08 07:42:09;;;;;;;20.40;11.73;;;1.00;99.90;;;;;;5147529;27;20034;-64
2022/03/08 07:45:07;;;;;;;16.30;10.98;;;1.10;99.90;;;;;;5145697;27;20115;-64
2022/03/08 07:47:36;;;;;;;19.30;11.52;;;1.10;99.90;;;;;;5144370;27;20043;-64
2022/03/08 07:50:51;;;;;;;17.25;11.57;;;1.20;99.90;;;;;;5127329;27;20088;-65
2022/03/08 07:53:32;;;;;;;18.35;11.35;;;1.30;99.90;;;;;;5137471;27;20396;-64
2022/03/08 07:56:20;;;;;;;17.48;11.40;;;1.30;99.90;;;;;;5148208;27;20031;-64
2022/03/08 07:58:57;;;;;;;15.77;10.40;;;1.40;99.90;;;;;;5141955;27;20086;-64
2022/03/08 08:01:32;;;;;;;15.05;10.50;;;1.50;99.90;;;;;;5147857;27;20023;-64
2022/03/08 08:04:00;;;;;;;17.20;10.25;;;1.60;99.90;;;;;;5144540;27;20118;-64
2022/03/08 08:06:43;;;;;;;15.30;9.90;;;1.60;99.90;;;;;;5147048;27;20076;-64
2022/03/08 08:09:23;;;;;;;16.10;10.57;;;1.70;99.90;;;;;;5148551;27;20110;-64
2022/03/08 08:12:20;;;;;;;17.30;10.10;;;1.80;99.90;;;;;;5148609;27;20410;-65
2022/03/08 08:14:57;;;;;;;14.90;9.68;;;2.00;99.90;;;;;;5145421;27;20122;-65
2022/03/08 08:17:50;;;;;;;15.80;10.18;;;2.00;99.90;;;;;;5148927;27;20042;-64
2022/03/08 08:20:24;;;;;;;14.15;9.90;;;2.20;99.90;;;;;;5149487;27;20043;-65
2022/03/08 08:23:01;;;;;;;16.20;10.00;;;2.40;99.90;;;;;;5146573;27;20031;-64
2022/03/08 08:25:36;;;;;;;13.98;9.90;;;2.50;99.90;;;;;;5145151;27;20081;-64
2022/03/08 08:28:08;;;;;;;14.77;10.70;;;2.60;99.90;;;;;;5140833;27;20042;-64
2022/03/08 08:30:42;;;;;;;15.98;9.68;;;2.70;99.90;;;;;;5140306;27;20129;-64
2022/03/08 08:33:11;;;;;;;15.20;9.75;;;2.80;99.90;;;;;;5149474;27;20055;-64
2022/03/08 08:36:06;;;;;;;14.27;9.15;;;3.00;99.90;;;;;;5147409;27;20117;-64
2022/03/08 08:39:04;;;;;;;17.48;9.35;;;3.20;99.90;;;;;;5149524;27;20058;-64
2022/03/08 08:41:57;;;;;;;13.77;8.77;;;3.30;99.90;;;;;;5148887;27;20039;-64
2022/03/08 08:44:26;;;;;;;12.60;8.77;;;3.50;99.90;;;;;;5140438;27;20163;-64
2022/03/08 08:47:03;;;;;;;13.00;9.18;;;3.70;99.90;;;;;;5148994;27;20490;-65
2022/03/08 08:49:32;;;;;;;13.50;9.05;;;3.80;99.90;;;;;;5148542;27;20471;-64
2022/03/08 08:52:05;;;;;;;13.15;8.88;;;3.90;99.90;;;;;;5164072;27;20417;-64
2022/03/08 08:54:36;;;;;;;13.65;9.43;;;4.00;99.90;;;;;;5146363;27;20434;-64
2022/03/08 08:57:07;;;;;;;13.38;8.43;;;4.10;99.90;;;;;;5145196;27;20066;-65
2022/03/08 08:59:44;;;;;;;13.35;8.43;;;4.30;99.90;;;;;;5148762;27;20363;-64
2022/03/08 09:02:40;;;;;;;10.57;8.00;;;4.40;99.90;;;;;;5143541;27;20391;-64
2022/03/08 09:05:05;;;;;;;11.55;7.93;;;4.50;99.90;;;;;;5159794;27;20054;-64
2022/03/08 09:07:33;;;;;;;12.68;8.90;;;4.70;99.90;;;;;;5148824;27;20043;-64
2022/03/08 09:10:10;;;;;;;12.07;8.13;;;4.80;99.90;;;;;;5141149;27;20499;-65
2022/03/08 09:12:38;;;;;;;11.40;8.18;;;4.90;99.90;;;;;;5143791;27;20133;-65
2022/03/08 09:15:09;;;;;;;12.23;7.82;;;5.00;99.90;;;;;;5140938;27;20589;-65
2022/03/08 09:17:40;;;;;;;9.27;6.22;;;5.20;99.90;;;;;;5146903;27;20078;-65
2022/03/08 09:20:30;;;;;;;10.48;6.72;;;5.40;99.90;;;;;;5147787;27;20041;-65
2022/03/08 09:23:02;;;;;;;10.20;7.32;;;5.50;99.90;;;;;;5132330;27;20049;-65
2022/03/08 09:25:42;;;;;;;10.55;7.13;;;5.70;99.90;;;;;;5146995;27;20043;-65
2022/03/08 09:28:23;;;;;;;10.02;6.68;;;5.80;99.90;;;;;;5148723;27;20093;-64
2022/03/08 09:31:01;;;;;;;8.27;6.38;;;5.90;99.90;;;;;;5148559;27;20035;-64
2022/03/08 09:33:42;;;;;;;8.93;6.70;;;6.00;99.90;;;;;;5147307;27;20099;-64
2022/03/08 09:36:26;;;;;;;8.20;6.50;;;6.20;99.90;;;;;;5149536;27;20145;-64
2022/03/08 09:38:59;;;;;;;8.85;6.22;;;6.20;99.90;;;;;;5153017;27;20041;-64
2022/03/08 09:41:30;;;;;;;7.50;6.20;;;6.40;99.90;;;;;;5150531;27;20031;-64
2022/03/08 09:47:07;;;;;;;10.68;6.25;;;6.50;99.10;;;;;;5140576;27;20053;-64
2022/03/08 09:49:41;;;;;;;7.88;6.22;;;6.60;99.10;;;;;;5148466;27;20056;-64
2022/03/08 09:52:10;;;;;;;7.38;5.57;;;6.70;99.90;;;;;;5143117;27;20069;-65
2022/03/08 09:54:48;;;;;;;8.00;5.65;;;6.80;95.60;;;;;;5135940;27;20042;-64
2022/03/08 09:57:30;;;;;;;8.02;5.30;;;6.90;97.00;;;;;;5150832;27;20041;-65
2022/03/08 10:00:04;;;;;;;8.57;5.80;;;7.10;94.60;;;;;;5148614;27;20481;-65
2022/03/08 10:02:52;;;;;;;6.70;5.30;;;6.90;94.60;;;;;;5149791;27;20131;-65
2022/03/08 10:05:26;;;;;;;11.45;5.55;;;7.00;92.90;;;;;;5149688;27;20079;-65
2022/03/08 10:08:22;;;;;;;6.57;5.40;;;7.10;92.60;;;;;;5149100;27;20134;-65
2022/03/08 10:10:58;;;;;;;6.65;5.18;;;7.10;91.30;;;;;;5149727;27;20094;-65
2022/03/08 10:13:52;;;;;;;9.55;5.20;;;7.10;90.50;;;;;;5152868;27;20049;-65
2022/03/08 10:16:41;;;;;;;9.60;6.03;;;7.20;90.60;;;;;;5150701;27;20098;-65
2022/03/08 10:19:33;;;;;;;7.65;5.90;;;7.20;92.10;;;;;;5151074;27;20115;-65
2022/03/08 10:22:22;;;;;;;8.57;5.90;;;7.20;90.10;;;;;;5150834;27;20031;-65
2022/03/08 10:25:07;;;;;;;6.95;5.80;;;7.30;90.00;;;;;;5150408;27;20392;-65
2022/03/08 10:27:36;;;;;;;7.18;5.88;;;7.30;90.00;;;;;;5150641;27;20481;-65
2022/03/08 10:30:13;;;;;;;9.77;5.80;;;7.30;90.90;;;;;;5150966;27;20046;-65
2022/03/08 10:32:59;;;;;;;7.43;5.22;;;7.40;92.20;;;;;;5146339;27;20054;-65
2022/03/08 10:35:58;;;;;;;7.47;6.25;;;7.50;90.20;;;;;;5150225;27;20078;-65
2022/03/08 10:38:30;;;;;;;9.98;6.30;;;7.50;88.70;;;;;;5145789;27;20076;-64
2022/03/08 10:43:52;;;;;;;11.25;5.93;;;7.70;89.30;;;;;;5138187;27;20050;-64
2022/03/08 10:46:18;;;;;;;9.05;6.00;;;7.60;88.70;;;;;;5146888;27;20039;-65
2022/03/08 10:52:13;;;;;;;7.95;5.80;;;7.80;83.80;;;;;;5137877;27;20093;-65
2022/03/08 10:54:53;;;;;;;7.43;4.82;;;7.80;87.90;;;;;;5149048;27;20035;-65
2022/03/08 10:57:40;;;;;;;7.25;4.95;;;7.90;83.40;;;;;;5148076;27;20054;-65
2022/03/08 11:00:15;;;;;;;8.02;5.47;;;8.00;83.10;;;;;;5149592;27;20068;-65
2022/03/08 11:03:06;;;;;;;8.68;5.82;;;8.00;83.10;;;;;;5147523;27;20402;-65
2022/03/08 11:05:47;;;;;;;9.05;5.38;;;8.10;81.90;;;;;;5144555;27;20054;-65
2022/03/08 11:08:17;;;;;;;9.25;5.88;;;8.20;83.10;;;;;;5148627;27;20402;-65
2022/03/08 11:10:50;;;;;;;7.60;5.45;;;8.20;82.20;;;;;;5145934;27;20460;-66
2022/03/08 11:13:30;;;;;;;7.70;5.57;;;8.20;83.20;;;;;;5150317;27;20479;-65
2022/03/08 11:16:26;;;;;;;7.47;5.07;;;8.30;80.60;;;;;;5149735;27;20402;-65
2022/03/08 11:19:07;;;;;;;7.22;5.13;;;8.30;79.90;;;;;;5147836;27;20441;-65
2022/03/08 11:22:06;;;;;;;8.88;5.38;;;8.30;80.20;;;;;;5145934;27;20047;-65
2022/03/08 11:24:35;;;;;;;8.27;5.07;;;8.40;81.10;;;;;;5147015;27;20487;-65
2022/03/08 11:27:05;;;;;;;8.65;5.25;;;8.40;79.00;;;;;;5147853;27;20853;-65
2022/03/08 11:29:36;;;;;;;9.18;5.45;;;8.40;76.10;;;;;;5147835;27;20050;-65
2022/03/08 11:32:06;;;;;;;7.90;5.50;;;8.40;78.90;;;;;;5144999;27;20039;-65
2022/03/08 11:35:27;;;;;;;8.55;5.53;;;8.50;80.20;;;;;;5146803;27;20482;-65
2022/03/08 11:37:58;;;;;;;7.07;5.40;;;8.50;74.30;;;;;;5001690;28;20130;-65
2022/03/08 11:40:27;;;;;;;9.80;5.68;;;8.50;76.20;;;;;;5061802;28;20114;-65
2022/03/08 11:43:07;;;;;;;5.65;4.70;;;8.50;75.30;;;;;;5118425;27;20035;-65
2022/03/08 11:45:41;;;;;;;7.57;4.97;;;8.60;73.80;;;;;;5147673;27;20038;-65
2022/03/08 11:48:10;;;;;;;6.63;4.75;;;8.60;74.30;;;;;;5148311;27;20030;-65
2022/03/08 11:50:57;;;;;;;6.35;5.05;;;8.60;72.60;;;;;;5147196;27;20035;-65
2022/03/08 11:53:59;;;;;;;6.88;4.93;;;8.60;73.60;;;;;;5145235;27;20034;-65
2022/03/08 11:56:25;;;;;;;5.18;4.40;;;8.60;70.90;;;;;;5121312;27;20214;-65
2022/03/08 11:59:11;;;;;;;7.20;5.53;;;8.60;71.40;;;;;;5130899;27;20487;-64
2022/03/08 12:01:47;;;;;;;5.83;4.53;;;8.60;71.60;;;;;;5146164;27;20031;-65
2022/03/08 12:04:21;;;;;;;8.65;4.82;;;8.70;71.30;;;;;;5149920;27;20605;-65
2022/03/08 12:07:09;;;;;;;;;;;8.70;73.40;;;;;;5148887;27;20038;-65
2022/03/08 12:09:43;;;;;;;8.05;5.03;;;8.80;72.30;;;;;;5133190;27;19950;-65
2022/03/08 12:12:24;;;;;;;7.95;4.93;;;8.80;73.40;;;;;;5123028;27;20039;-65
2022/03/08 12:15:05;;;;;;;6.13;4.93;;;8.90;70.10;;;;;;5148197;27;20031;-65
2022/03/08 12:18:21;;;;;;;7.90;5.10;;;8.90;70.50;;;;;;5145850;27;20107;-65
2022/03/08 12:21:28;;;;;;;5.65;4.28;;;8.90;69.40;;;;;;5145244;27;20066;-65
2022/03/08 12:24:16;;;;;;;7.43;4.40;;;9.00;69.10;;;;;;5113375;27;20050;-65
2022/03/08 12:27:00;;;;;;;6.78;4.72;;;8.90;67.90;;;;;;5101287;28;20465;-65
2022/03/08 12:29:33;;;;;;;6.18;4.63;;;9.00;69.60;;;;;;5084924;28;20077;-65
2022/03/08 12:32:08;;;;;;;6.72;4.75;;;9.00;68.30;;;;;;5093454;28;20061;-65
2022/03/08 12:37:48;;;;;;;6.90;4.88;;;9.10;69.70;;;;;;5067012;28;20063;-64
2022/03/08 12:40:46;;;;;;;6.53;4.90;;;9.10;68.00;;;;;;5086856;28;20047;-65
2022/03/08 12:43:19;;;;;;;8.40;4.80;;;9.20;67.80;;;;;;5077733;28;20055;-65
2022/03/08 12:48:45;;;;;;;6.18;4.75;;;9.30;67.00;;;;;;5083823;28;20044;-65
2022/03/08 12:51:28;;;;;;;7.05;4.35;;;9.20;67.20;;;;;;5104906;28;20070;-65
2022/03/08 12:54:00;;;;;;;8.15;4.97;;;9.30;66.50;;;;;;5088236;28;20126;-65
2022/03/08 12:56:41;;;;;;;9.45;5.43;;;9.20;68.70;;;;;;5105070;28;20044;-65
2022/03/08 12:59:18;;;;;;;6.30;4.45;;;9.30;68.60;;;;;;5105608;28;20097;-65
2022/03/08 13:02:08;;;;;;;7.38;4.68;;;9.40;69.20;;;;;;5104540;28;20036;-65
2022/03/08 13:05:25;;;;;;;6.03;4.90;;;9.40;65.80;;;;;;5128132;27;20086;-65
2022/03/08 13:14:44;;;;;;;6.50;4.90;;;9.40;64.70;;;;;;5047023;28;20063;-65
2022/03/08 13:17:26;;;;;;;6.28;3.97;;;9.40;65.30;;;;;;5068537;28;20370;-65
2022/03/08 13:19:52;;;;;;;5.72;4.18;;;9.50;65.60;;;;;;5051916;28;20052;-65
2022/03/08 13:22:24;;;;;;;6.28;4.68;;;9.50;66.80;;;;;;5053352;28;20044;-66
2022/03/08 13:25:09;;;;;;;6.57;4.85;;;9.50;65.50;;;;;;5068809;28;20045;-65
2022/03/08 13:28:14;;;;;;;6.07;4.20;;;9.60;66.10;;;;;;5076680;27;20040;-65
2022/03/08 13:30:50;;;;;;;5.57;3.95;;;9.60;65.20;;;;;;5151649;27;20529;-64
2022/03/08 13:34:03;;;;;;;9.40;4.20;;;9.60;62.60;;;;;;5148422;27;20489;-65
2022/03/08 13:36:34;;;;;;;5.82;3.83;;;9.60;64.90;;;;;;5150342;27;20542;-65
2022/03/08 13:39:21;;;;;;;5.30;4.00;;;9.70;66.40;;;;;;5151464;27;20037;-65
2022/03/08 13:41:51;;;;;;;4.97;3.88;;;9.70;66.80;;;;;;5147998;27;20046;-65
2022/03/08 13:44:24;;;;;;;5.22;3.78;;;9.80;66.30;;;;;;5151015;27;20497;-65
2022/03/08 13:46:59;;;;;;;5.45;3.70;;;9.80;66.40;;;;;;5147251;27;20057;-65
2022/03/08 13:50:01;;;;;;;5.88;4.00;;;9.80;64.80;;;;;;5151015;27;20474;-65
2022/03/08 13:52:29;;;;;;;9.85;4.38;;;9.70;64.10;;;;;;5132293;27;20038;-65
2022/03/08 13:54:58;;;;;;;6.78;3.95;;;9.70;65.90;;;;;;5152900;27;20539;-65
2022/03/08 13:58:03;;;;;;;6.45;4.40;;;9.70;65.00;;;;;;5153694;27;20034;-65
2022/03/08 14:00:36;;;;;;;4.90;3.70;;;9.70;63.70;;;;;;5149495;27;20129;-65
2022/03/08 14:03:07;;;;;;;5.63;3.97;;;9.80;65.20;;;;;;5149221;27;20046;-65
2022/03/08 14:08:55;;;;;;;;;;;9.90;65.40;;;;;;5145599;27;20042;-66
2022/03/08 14:11:26;;;;;;;4.60;3.60;;;9.80;62.80;;;;;;5152491;27;19915;-65
2022/03/08 14:14:10;;;;;;;6.47;3.92;;;9.80;64.20;;;;;;5152296;27;20034;-65
2022/03/08 14:16:49;;;;;;;4.90;3.78;;;9.70;64.50;;;;;;5150789;27;20039;-65
2022/03/08 14:19:47;;;;;;;4.55;3.75;;;9.70;64.00;;;;;;5149931;27;20037;-65
2022/03/08 14:22:18;;;;;;;7.20;4.28;;;9.70;64.00;;;;;;5145677;27;20039;-65
2022/03/08 14:25:12;;;;;;;7.07;4.20;;;9.80;63.60;;;;;;5147112;27;20068;-65
2022/03/08 14:27:53;;;;;;;7.43;3.95;;;9.80;64.10;;;;;;5155412;27;20088;-65
2022/03/08 14:30:36;;;;;;;7.55;4.07;;;9.80;63.90;;;;;;5151388;27;20043;-65
2022/03/08 14:33:26;;;;;;;5.85;4.03;;;9.80;64.70;;;;;;5148421;27;20133;-65
2022/03/08 14:36:09;;;;;;;5.47;3.95;;;9.80;64.80;;;;;;5149840;27;20093;-65